Time;durP1;ratioP1;P1;durP2;ratioP2;P2;SDS_P1;SDS_P2;PMS_P1;PMS_P2;Temp;Humidity;BMP_temperature;BMP_pressure;BME280_temperature;BME280_humidity;BME280_pressure;Samples;Min_cycle;Max_cycle;Signal;HPM_P1;HPM_P2
2023/08/12 00:00:20;;;;;;;13.88;7.40;;;19.00;99.90;;;;;;5097310;28;20121;-61
2023/08/12 00:02:46;;;;;;;14.38;7.35;;;19.20;99.90;;;;;;5099232;28;20036;-60
2023/08/12 00:05:13;;;;;;;14.95;7.40;;;19.20;99.90;;;;;;5096701;28;20067;-60
2023/08/12 00:07:42;;;;;;;12.20;7.75;;;19.00;99.90;;;;;;5098948;28;20118;-60
2023/08/12 00:10:10;;;;;;;12.90;6.50;;;19.00;99.90;;;;;;5097170;28;20081;-60
2023/08/12 00:12:36;;;;;;;12.45;7.18;;;19.10;99.90;;;;;;5097378;28;20490;-60
2023/08/12 00:15:04;;;;;;;13.32;7.20;;;19.20;99.90;;;;;;5098388;28;20055;-60
2023/08/12 00:17:30;;;;;;;10.85;6.35;;;19.00;99.90;;;;;;5096954;28;20043;-60
2023/08/12 00:19:56;;;;;;;12.02;7.15;;;19.20;99.90;;;;;;5098645;28;20036;-61
2023/08/12 00:22:22;;;;;;;11.18;6.28;;;19.20;99.90;;;;;;5096823;28;20101;-61
2023/08/12 00:24:48;;;;;;;12.73;6.85;;;19.10;99.90;;;;;;5098578;28;20051;-61
2023/08/12 00:27:13;;;;;;;13.32;6.78;;;19.20;99.90;;;;;;5097026;28;20040;-61
2023/08/12 00:29:39;;;;;;;17.30;7.53;;;19.00;99.90;;;;;;5098524;28;20052;-61
2023/08/12 00:32:05;;;;;;;12.90;6.20;;;19.10;99.90;;;;;;5097844;28;20040;-58
2023/08/12 00:34:30;;;;;;;11.82;6.30;;;19.10;99.90;;;;;;5097161;28;20060;-60
2023/08/12 00:36:56;;;;;;;12.60;6.80;;;19.00;99.90;;;;;;5098846;28;20040;-60
2023/08/12 00:39:22;;;;;;;12.73;5.78;;;19.00;99.90;;;;;;5096323;28;20068;-61
2023/08/12 00:41:48;;;;;;;12.70;6.25;;;19.10;99.90;;;;;;5098352;28;20039;-61
2023/08/12 00:44:15;;;;;;;12.85;6.15;;;19.10;99.90;;;;;;5096646;28;20044;-61
2023/08/12 00:46:42;;;;;;;10.27;5.78;;;19.00;99.90;;;;;;5098200;28;20113;-61
2023/08/12 00:49:08;;;;;;;11.20;5.28;;;18.90;99.90;;;;;;5097297;28;20084;-60
2023/08/12 00:51:35;;;;;;;9.18;4.85;;;19.10;99.90;;;;;;5078867;28;20057;-60
2023/08/12 00:54:04;;;;;;;10.35;4.95;;;18.90;99.90;;;;;;5098151;28;20134;-60
2023/08/12 00:56:30;;;;;;;10.38;5.10;;;19.10;99.90;;;;;;5086239;28;20044;-59
2023/08/12 00:58:57;;;;;;;12.07;4.72;;;19.10;99.90;;;;;;5078002;28;20091;-61
2023/08/12 01:01:23;;;;;;;11.65;4.53;;;18.90;99.90;;;;;;5076315;28;20037;-60
2023/08/12 01:03:49;;;;;;;12.40;4.38;;;19.00;99.90;;;;;;5077823;28;20112;-60
2023/08/12 01:06:15;;;;;;;10.20;4.25;;;19.00;99.90;;;;;;5077338;28;20051;-60
2023/08/12 01:08:40;;;;;;;8.55;4.28;;;19.00;99.90;;;;;;5076727;28;20053;-60
2023/08/12 01:11:18;;;;;;;11.52;5.03;;;19.10;99.90;;;;;;5078360;28;20032;-60
2023/08/12 01:14:09;;;;;;;9.30;3.90;;;19.10;99.90;;;;;;5075952;28;20064;-60
2023/08/12 01:16:39;;;;;;;10.73;4.28;;;18.80;99.90;;;;;;5077625;28;20044;-60
2023/08/12 01:19:09;;;;;;;8.60;4.22;;;19.00;99.90;;;;;;5076846;28;20035;-60
2023/08/12 01:21:40;;;;;;;9.77;4.53;;;19.10;99.90;;;;;;5076496;28;20519;-60
2023/08/12 01:24:07;;;;;;;8.60;4.38;;;19.00;99.90;;;;;;5079037;28;20053;-60
2023/08/12 01:26:32;;;;;;;10.07;5.25;;;18.80;99.90;;;;;;5079801;28;20138;-62
2023/08/12 01:28:58;;;;;;;9.38;3.97;;;18.90;99.90;;;;;;5081532;28;20036;-60
2023/08/12 01:31:34;;;;;;;9.23;3.92;;;18.90;99.90;;;;;;5062070;28;20040;-62
2023/08/12 01:34:30;;;;;;;10.90;4.25;;;18.90;99.90;;;;;;5080660;28;20055;-63
2023/08/12 01:36:58;;;;;;;9.48;4.57;;;18.90;99.90;;;;;;5080868;28;20052;-60
2023/08/12 01:39:26;;;;;;;10.23;4.60;;;18.80;99.90;;;;;;5079221;28;20040;-61
2023/08/12 01:41:54;;;;;;;12.02;5.13;;;18.70;99.90;;;;;;5081394;28;20044;-60
2023/08/12 01:44:19;;;;;;;10.52;4.60;;;18.90;99.90;;;;;;5079765;28;20060;-62
2023/08/12 01:46:45;;;;;;;14.02;4.53;;;18.90;99.90;;;;;;5080759;28;20044;-60
2023/08/12 01:49:11;;;;;;;10.55;5.20;;;18.70;99.90;;;;;;5062093;28;20056;-61
2023/08/12 01:51:36;;;;;;;8.90;4.30;;;18.80;99.90;;;;;;5079277;28;20104;-60
2023/08/12 01:54:02;;;;;;;9.10;4.55;;;18.60;99.90;;;;;;5080930;28;20040;-60
2023/08/12 01:56:28;;;;;;;8.77;4.63;;;18.60;99.90;;;;;;5088675;28;20043;-61
2023/08/12 01:58:54;;;;;;;9.85;4.70;;;18.80;99.90;;;;;;5101270;28;20134;-60
2023/08/12 02:01:19;;;;;;;9.98;4.70;;;18.80;99.90;;;;;;5099678;28;20092;-60
2023/08/12 02:03:45;;;;;;;9.35;4.80;;;18.70;99.90;;;;;;5100560;28;20047;-60
2023/08/12 02:06:10;;;;;;;10.25;4.55;;;18.80;99.90;;;;;;5100387;28;20078;-60
2023/08/12 02:08:36;;;;;;;9.10;4.80;;;18.60;99.90;;;;;;5099728;28;20051;-60
2023/08/12 02:11:02;;;;;;;11.27;4.80;;;18.50;99.90;;;;;;5101487;28;20044;-60
2023/08/12 02:13:27;;;;;;;8.23;4.53;;;18.60;99.90;;;;;;5064051;28;20055;-60
2023/08/12 02:15:53;;;;;;;9.82;4.50;;;18.70;99.90;;;;;;5101107;28;20384;-60
2023/08/12 02:18:19;;;;;;;9.52;4.28;;;18.50;99.90;;;;;;5098731;28;20044;-60
2023/08/12 02:20:47;;;;;;;10.48;4.18;;;18.50;99.90;;;;;;5100600;28;20076;-60
2023/08/12 02:23:12;;;;;;;9.68;4.40;;;18.60;99.90;;;;;;5099952;28;20372;-60
2023/08/12 02:25:38;;;;;;;9.75;4.32;;;18.40;99.90;;;;;;5099760;28;20051;-60
2023/08/12 02:28:04;;;;;;;8.32;4.40;;;18.60;99.90;;;;;;5100956;28;20058;-60
2023/08/12 02:30:30;;;;;;;9.07;4.00;;;18.50;99.90;;;;;;5098670;28;20089;-60
2023/08/12 02:32:56;;;;;;;9.35;4.15;;;18.40;99.90;;;;;;5100969;28;20054;-61
2023/08/12 02:35:21;;;;;;;9.40;4.38;;;18.60;99.90;;;;;;5097719;28;20063;-60
2023/08/12 02:37:50;;;;;;;10.07;4.30;;;18.30;99.90;;;;;;5100606;28;20495;-60
2023/08/12 02:40:16;;;;;;;11.68;4.05;;;18.50;99.90;;;;;;5099049;28;20088;-60
2023/08/12 02:42:41;;;;;;;11.25;4.65;;;18.50;99.90;;;;;;5099649;28;20063;-60
2023/08/12 02:45:07;;;;;;;10.60;4.45;;;18.50;99.90;;;;;;5100608;28;20040;-60
2023/08/12 02:47:33;;;;;;;9.68;5.05;;;18.50;99.90;;;;;;5098261;28;20048;-61
2023/08/12 02:49:59;;;;;;;11.55;5.55;;;18.60;99.90;;;;;;5100277;28;20074;-60
2023/08/12 02:52:24;;;;;;;10.57;4.97;;;18.50;99.90;;;;;;5097887;28;20052;-60
2023/08/12 02:54:50;;;;;;;10.68;5.38;;;18.40;99.90;;;;;;5100041;28;20123;-60
2023/08/12 02:57:16;;;;;;;10.20;5.22;;;18.60;99.90;;;;;;5081836;28;20090;-60
2023/08/12 02:59:41;;;;;;;12.18;5.55;;;18.30;99.90;;;;;;5079544;28;20044;-61
2023/08/12 03:02:07;;;;;;;9.68;4.93;;;18.30;99.90;;;;;;5079512;28;20120;-60
2023/08/12 03:04:33;;;;;;;9.13;4.93;;;18.60;99.90;;;;;;5077850;28;20055;-60
2023/08/12 03:06:59;;;;;;;10.60;5.45;;;18.60;99.90;;;;;;5080085;28;20072;-60
2023/08/12 03:09:24;;;;;;;10.88;5.60;;;18.40;99.90;;;;;;5077615;28;20041;-60
2023/08/12 03:11:50;;;;;;;11.77;5.30;;;18.60;99.90;;;;;;5079555;28;20451;-61
2023/08/12 03:14:15;;;;;;;11.30;5.93;;;18.50;99.90;;;;;;5059514;28;20413;-59
2023/08/12 03:16:41;;;;;;;10.35;5.53;;;18.30;99.90;;;;;;5078780;28;20507;-60
2023/08/12 03:19:07;;;;;;;10.00;5.70;;;18.40;99.90;;;;;;5078555;28;20051;-60
2023/08/12 03:21:34;;;;;;;11.85;5.78;;;18.30;99.90;;;;;;5060024;28;20094;-60
2023/08/12 03:24:00;;;;;;;12.02;6.00;;;18.30;99.90;;;;;;5079662;28;20052;-60
2023/08/12 03:26:25;;;;;;;12.68;5.68;;;18.40;99.90;;;;;;5077172;28;20051;-60
2023/08/12 03:28:51;;;;;;;10.70;5.97;;;18.40;99.90;;;;;;5079575;28;20072;-60
2023/08/12 03:31:17;;;;;;;10.32;5.43;;;18.40;99.90;;;;;;5077058;28;20083;-61
2023/08/12 03:33:43;;;;;;;11.73;6.03;;;18.30;99.90;;;;;;5078819;28;20052;-60
2023/08/12 03:36:09;;;;;;;10.90;5.75;;;18.40;99.90;;;;;;5060099;28;20040;-60
2023/08/12 03:38:35;;;;;;;10.90;5.72;;;18.40;99.90;;;;;;5077881;28;20047;-61
2023/08/12 03:41:02;;;;;;;10.80;6.57;;;18.30;99.90;;;;;;5079256;28;20048;-60
2023/08/12 03:43:28;;;;;;;12.45;6.18;;;18.30;99.90;;;;;;5076842;28;20092;-60
2023/08/12 03:45:54;;;;;;;13.05;5.95;;;18.40;99.90;;;;;;5060999;28;20090;-60
2023/08/12 03:48:19;;;;;;;13.68;6.80;;;18.50;99.90;;;;;;5076640;28;20111;-60
2023/08/12 03:50:46;;;;;;;13.00;6.70;;;18.50;99.90;;;;;;5078355;28;20438;-60
2023/08/12 03:53:12;;;;;;;12.70;6.53;;;18.40;99.90;;;;;;5077471;28;20051;-60
2023/08/12 03:55:38;;;;;;;14.73;7.25;;;18.30;99.90;;;;;;5080399;28;20096;-60
2023/08/12 03:58:04;;;;;;;13.02;6.53;;;18.30;99.90;;;;;;5099001;28;20165;-60
2023/08/12 04:00:30;;;;;;;12.70;6.70;;;18.40;99.90;;;;;;5097110;28;20051;-60
2023/08/12 04:02:56;;;;;;;11.23;6.32;;;18.30;99.90;;;;;;5080837;28;20107;-60
2023/08/12 04:05:22;;;;;;;13.50;7.25;;;18.60;99.90;;;;;;5097155;28;20487;-59
2023/08/12 04:07:48;;;;;;;11.90;6.68;;;18.40;99.90;;;;;;5080557;28;20036;-60
2023/08/12 04:10:13;;;;;;;11.30;6.47;;;18.40;99.90;;;;;;5097631;28;20048;-59
2023/08/12 04:12:41;;;;;;;11.43;6.35;;;18.40;99.90;;;;;;5098111;28;20055;-60
2023/08/12 04:15:08;;;;;;;13.95;6.70;;;18.50;99.90;;;;;;5098832;28;20076;-60
2023/08/12 04:17:33;;;;;;;13.93;7.70;;;18.50;99.90;;;;;;5096972;28;20105;-60
2023/08/12 04:19:59;;;;;;;11.30;6.80;;;18.30;99.90;;;;;;5098689;28;20052;-60
2023/08/12 04:22:24;;;;;;;13.57;6.50;;;18.50;99.90;;;;;;5096643;28;20081;-60
2023/08/12 04:24:50;;;;;;;13.65;7.10;;;18.30;99.90;;;;;;5098648;28;20530;-60
2023/08/12 04:27:16;;;;;;;13.38;6.88;;;18.50;99.90;;;;;;5097180;28;20099;-60
2023/08/12 04:29:42;;;;;;;12.60;6.60;;;18.40;99.90;;;;;;5098177;28;20051;-61
2023/08/12 04:32:08;;;;;;;12.52;7.35;;;18.30;99.90;;;;;;5080220;28;20040;-59
2023/08/12 04:34:34;;;;;;;12.07;6.97;;;18.60;99.90;;;;;;5096843;28;20066;-60
2023/08/12 04:36:59;;;;;;;12.63;7.05;;;18.60;99.90;;;;;;5098734;28;20087;-60
2023/08/12 04:39:25;;;;;;;12.60;7.95;;;18.50;99.90;;;;;;5096841;28;20047;-60
2023/08/12 04:41:51;;;;;;;13.52;7.28;;;18.60;99.90;;;;;;5098297;28;20066;-61
2023/08/12 04:44:17;;;;;;;11.23;6.93;;;18.60;99.90;;;;;;5097040;28;20048;-60
2023/08/12 04:46:42;;;;;;;12.32;7.22;;;18.50;99.90;;;;;;5097848;28;20048;-62
2023/08/12 04:49:08;;;;;;;14.63;7.43;;;18.60;99.90;;;;;;5097738;28;20056;-61
2023/08/12 04:51:34;;;;;;;13.75;7.65;;;18.70;99.90;;;;;;5096898;28;20052;-60
2023/08/12 04:54:01;;;;;;;13.80;7.40;;;18.70;99.90;;;;;;5098601;28;20057;-61
2023/08/12 04:56:28;;;;;;;15.23;8.02;;;18.70;99.90;;;;;;5086829;28;20048;-60
2023/08/12 04:58:55;;;;;;;12.27;7.63;;;18.50;99.90;;;;;;5078971;28;20053;-60
2023/08/12 05:01:20;;;;;;;13.18;7.45;;;18.70;99.90;;;;;;5080570;28;20045;-60
2023/08/12 05:03:46;;;;;;;14.48;7.97;;;18.90;99.90;;;;;;5081768;28;20045;-60
2023/08/12 05:06:12;;;;;;;15.13;8.30;;;18.90;99.90;;;;;;5081497;28;20048;-60
2023/08/12 05:08:37;;;;;;;14.02;8.20;;;18.70;99.90;;;;;;5080463;28;20071;-61
2023/08/12 05:11:03;;;;;;;12.95;8.25;;;18.90;99.90;;;;;;5082125;28;20059;-60
2023/08/12 05:13:29;;;;;;;13.38;7.68;;;18.70;99.90;;;;;;5079830;28;20048;-60
2023/08/12 05:15:55;;;;;;;12.93;7.57;;;19.00;99.90;;;;;;5081954;28;20181;-60
2023/08/12 05:18:26;;;;;;;14.38;8.25;;;19.10;99.90;;;;;;5079733;28;20070;-60
2023/08/12 05:20:52;;;;;;;11.93;7.50;;;19.10;99.90;;;;;;5081379;28;20102;-57
2023/08/12 05:23:19;;;;;;;10.40;6.97;;;19.20;99.90;;;;;;5081001;28;20040;-60
2023/08/12 05:25:45;;;;;;;13.20;7.43;;;19.20;99.90;;;;;;5079980;28;20036;-60
2023/08/12 05:28:11;;;;;;;12.95;7.40;;;19.30;99.90;;;;;;5082018;28;20098;-60
2023/08/12 05:30:38;;;;;;;16.13;7.43;;;19.30;99.90;;;;;;5079244;28;20037;-60
2023/08/12 05:33:04;;;;;;;12.27;7.13;;;19.30;99.90;;;;;;5063737;28;20063;-57
2023/08/12 05:35:34;;;;;;;17.77;8.65;;;19.40;99.90;;;;;;5079700;28;20052;-57
2023/08/12 05:38:00;;;;;;;16.23;7.82;;;19.40;99.90;;;;;;5080771;28;20041;-57
2023/08/12 05:40:25;;;;;;;12.73;7.72;;;19.30;99.90;;;;;;5080955;28;20075;-56
2023/08/12 05:42:51;;;;;;;12.98;7.72;;;19.40;99.90;;;;;;5079845;28;20091;-57
2023/08/12 05:45:17;;;;;;;11.50;7.65;;;19.40;99.90;;;;;;5081893;28;20049;-57
2023/08/12 05:47:42;;;;;;;12.52;7.25;;;19.40;99.90;;;;;;5078907;28;20043;-56
2023/08/12 05:50:08;;;;;;;14.73;6.60;;;19.50;99.90;;;;;;5081177;28;20472;-56
2023/08/12 05:52:34;;;;;;;13.52;7.65;;;19.70;99.90;;;;;;5079181;28;20053;-56
2023/08/12 05:55:00;;;;;;;15.43;8.02;;;19.70;99.90;;;;;;5080404;28;20060;-57
2023/08/12 05:57:26;;;;;;;15.43;7.03;;;19.60;99.90;;;;;;5098053;28;20036;-57
2023/08/12 05:59:52;;;;;;;12.32;7.65;;;19.60;99.90;;;;;;5100098;28;20059;-56
2023/08/12 06:02:18;;;;;;;13.40;7.88;;;19.60;99.90;;;;;;5083517;28;20122;-56
2023/08/12 06:04:44;;;;;;;14.25;7.43;;;19.70;99.90;;;;;;5099074;28;20040;-56
2023/08/12 06:07:09;;;;;;;12.88;7.40;;;19.90;99.90;;;;;;5101564;28;20040;-56
2023/08/12 06:09:35;;;;;;;14.50;7.80;;;19.90;99.90;;;;;;5098548;28;20048;-56
2023/08/12 06:12:01;;;;;;;12.13;7.35;;;19.80;99.90;;;;;;5100375;28;20040;-56
2023/08/12 06:14:26;;;;;;;13.27;8.00;;;19.80;99.90;;;;;;5099450;28;20048;-56
2023/08/12 06:16:52;;;;;;;12.90;7.88;;;20.20;99.90;;;;;;5100245;28;20047;-56
2023/08/12 06:19:18;;;;;;;13.57;7.63;;;20.00;99.90;;;;;;5100721;28;20044;-56
2023/08/12 06:21:43;;;;;;;12.43;7.45;;;20.00;99.90;;;;;;5098834;28;20521;-56
2023/08/12 06:24:09;;;;;;;14.32;7.30;;;20.20;99.90;;;;;;5100822;28;20075;-56
2023/08/12 06:26:35;;;;;;;15.50;8.27;;;19.90;99.90;;;;;;5080667;28;20036;-56
2023/08/12 06:29:00;;;;;;;16.88;8.57;;;20.10;99.90;;;;;;5100711;28;20040;-56
2023/08/12 06:31:26;;;;;;;14.63;8.10;;;20.00;99.90;;;;;;5099121;28;20115;-55
2023/08/12 06:33:51;;;;;;;14.02;8.60;;;19.80;99.90;;;;;;5099911;28;20044;-56
2023/08/12 06:36:17;;;;;;;14.93;8.63;;;19.80;99.90;;;;;;5100332;28;20044;-53
2023/08/12 06:38:43;;;;;;;14.55;8.98;;;19.90;99.90;;;;;;5098231;28;20043;-56
2023/08/12 06:41:08;;;;;;;17.73;8.20;;;19.70;99.90;;;;;;5100964;28;20054;-56
2023/08/12 06:43:35;;;;;;;13.63;8.60;;;20.00;99.90;;;;;;5097908;28;20104;-56
2023/08/12 06:46:01;;;;;;;17.60;8.85;;;19.70;99.90;;;;;;5100811;28;20123;-56
2023/08/12 06:48:26;;;;;;;13.43;8.25;;;19.60;99.90;;;;;;5079946;28;20137;-56
2023/08/12 06:50:56;;;;;;;14.50;8.32;;;19.80;99.90;;;;;;5100084;28;20047;-58
2023/08/12 06:53:21;;;;;;;14.13;8.48;;;19.70;99.90;;;;;;5099633;28;20051;-56
2023/08/12 06:55:47;;;;;;;15.43;9.23;;;19.70;99.90;;;;;;5094479;28;20416;-56
2023/08/12 06:58:14;;;;;;;14.85;9.52;;;20.00;99.90;;;;;;5080464;28;20037;-59
2023/08/12 07:00:40;;;;;;;19.92;9.48;;;19.90;99.90;;;;;;5077713;28;20036;-56
2023/08/12 07:03:06;;;;;;;16.65;9.63;;;19.80;99.90;;;;;;5080028;28;20047;-57
2023/08/12 07:05:31;;;;;;;20.30;9.38;;;20.10;99.90;;;;;;5077932;28;20385;-55
2023/08/12 07:07:57;;;;;;;17.98;9.98;;;19.80;99.90;;;;;;5079394;28;20037;-57
2023/08/12 07:10:23;;;;;;;15.63;10.07;;;19.90;99.90;;;;;;5078811;28;20038;-56
2023/08/12 07:12:48;;;;;;;15.65;9.98;;;20.10;99.90;;;;;;5078220;28;20044;-57
2023/08/12 07:15:14;;;;;;;17.20;10.88;;;19.90;99.90;;;;;;5079446;28;20051;-57
2023/08/12 07:17:40;;;;;;;16.05;10.38;;;20.00;99.90;;;;;;5077320;28;20048;-56
2023/08/12 07:20:07;;;;;;;16.95;11.15;;;19.90;99.90;;;;;;5061353;28;20048;-55
2023/08/12 07:22:33;;;;;;;20.95;11.38;;;20.10;99.90;;;;;;5077016;28;20128;-56
2023/08/12 07:24:59;;;;;;;16.42;10.65;;;20.30;99.90;;;;;;5079000;28;20088;-56
2023/08/12 07:27:26;;;;;;;18.95;11.85;;;20.10;99.90;;;;;;5078386;28;20499;-56
2023/08/12 07:29:52;;;;;;;19.05;11.52;;;20.10;99.90;;;;;;5078078;28;20044;-56
2023/08/12 07:32:18;;;;;;;18.30;11.63;;;20.40;99.90;;;;;;5079371;28;20064;-55
2023/08/12 07:34:44;;;;;;;18.63;11.85;;;20.30;99.90;;;;;;5059149;28;20055;-55
2023/08/12 07:37:11;;;;;;;20.38;12.27;;;20.30;99.90;;;;;;5079108;28;20054;-57
2023/08/12 07:39:36;;;;;;;17.83;11.50;;;20.10;99.90;;;;;;5077318;28;20099;-56
2023/08/12 07:42:03;;;;;;;19.90;12.02;;;20.10;99.90;;;;;;5061004;28;20040;-56
2023/08/12 07:44:28;;;;;;;18.27;11.93;;;20.20;99.90;;;;;;5077883;28;20041;-56
2023/08/12 07:46:54;;;;;;;20.00;12.25;;;20.10;99.90;;;;;;5078326;28;20617;-56
2023/08/12 07:49:20;;;;;;;20.13;13.35;;;20.40;99.90;;;;;;5078542;28;20067;-56
2023/08/12 07:51:45;;;;;;;21.67;12.88;;;20.40;99.90;;;;;;5076906;28;20550;-57
2023/08/12 07:54:12;;;;;;;22.92;13.35;;;20.40;99.90;;;;;;5078957;28;20090;-57
2023/08/12 07:56:37;;;;;;;21.00;12.82;;;20.00;99.90;;;;;;5087999;28;20084;-56
2023/08/12 07:59:03;;;;;;;20.40;13.20;;;20.30;99.90;;;;;;5098807;28;20035;-57
2023/08/12 08:01:29;;;;;;;21.58;13.07;;;20.20;99.90;;;;;;5079278;28;20044;-57
2023/08/12 08:03:54;;;;;;;20.73;13.70;;;20.40;99.90;;;;;;5098585;28;20092;-57
2023/08/12 08:06:21;;;;;;;18.55;12.43;;;20.20;99.90;;;;;;5098400;28;20062;-57
2023/08/12 08:08:47;;;;;;;18.55;12.15;;;20.20;99.90;;;;;;5097259;28;20120;-58
2023/08/12 08:11:13;;;;;;;20.70;13.10;;;20.40;99.90;;;;;;5099034;28;20051;-57
2023/08/12 08:13:39;;;;;;;19.50;13.35;;;20.30;99.90;;;;;;5096903;28;20069;-57
2023/08/12 08:16:04;;;;;;;21.73;12.80;;;20.40;99.90;;;;;;5098394;28;20046;-57
2023/08/12 08:18:30;;;;;;;21.58;13.13;;;20.40;99.90;;;;;;5097129;28;20050;-57
2023/08/12 08:20:55;;;;;;;21.67;12.93;;;20.40;99.90;;;;;;5097988;28;20564;-57
2023/08/12 08:23:21;;;;;;;20.38;12.57;;;20.40;99.90;;;;;;5098276;28;20079;-56
2023/08/12 08:25:47;;;;;;;19.50;12.93;;;20.40;99.90;;;;;;5097123;28;20047;-57
2023/08/12 08:28:13;;;;;;;21.98;13.35;;;20.20;99.90;;;;;;5099008;28;20099;-56
2023/08/12 08:30:39;;;;;;;18.92;12.68;;;20.10;99.90;;;;;;5096712;28;20052;-57
2023/08/12 08:33:06;;;;;;;19.55;13.48;;;20.20;99.90;;;;;;5097974;28;20044;-57
2023/08/12 08:35:31;;;;;;;22.48;14.88;;;20.40;99.90;;;;;;5078736;28;20105;-57
2023/08/12 08:37:57;;;;;;;20.50;13.07;;;20.10;99.90;;;;;;5097983;28;20044;-57
2023/08/12 08:40:23;;;;;;;20.00;12.75;;;20.30;99.90;;;;;;5097966;28;20155;-57
2023/08/12 08:42:55;;;;;;;21.88;13.68;;;20.40;99.90;;;;;;5096832;28;20044;-57
2023/08/12 08:45:25;;;;;;;22.17;13.82;;;20.20;99.90;;;;;;5080580;28;20048;-56
2023/08/12 08:47:52;;;;;;;23.58;14.55;;;20.00;99.90;;;;;;5078088;28;20137;-57
2023/08/12 08:50:18;;;;;;;22.52;13.77;;;20.20;99.90;;;;;;5098078;28;20052;-58
2023/08/12 08:52:44;;;;;;;22.75;13.82;;;20.10;99.90;;;;;;5096906;28;20085;-58
2023/08/12 08:55:11;;;;;;;21.77;13.80;;;20.00;99.90;;;;;;5097595;28;20039;-61
2023/08/12 08:57:37;;;;;;;21.25;14.10;;;20.00;99.90;;;;;;5078729;28;20047;-63
2023/08/12 09:00:07;;;;;;;21.40;14.20;;;20.10;99.90;;;;;;5076569;28;20044;-63
2023/08/12 09:02:33;;;;;;;25.08;14.48;;;20.20;99.90;;;;;;5078265;28;20044;-63
2023/08/12 09:05:01;;;;;;;24.80;14.68;;;20.40;99.90;;;;;;5076082;28;20048;-62
2023/08/12 09:07:29;;;;;;;25.88;15.88;;;20.20;99.90;;;;;;5078034;28;20715;-63
2023/08/12 09:09:55;;;;;;;24.33;14.82;;;20.20;99.90;;;;;;5076731;28;20037;-62
2023/08/12 09:12:22;;;;;;;24.63;16.45;;;20.10;99.90;;;;;;5077397;28;20055;-59
2023/08/12 09:14:48;;;;;;;21.83;15.65;;;20.30;99.90;;;;;;5077786;28;20048;-60
2023/08/12 09:17:14;;;;;;;23.38;15.80;;;20.10;99.90;;;;;;5075903;28;20048;-59
2023/08/12 09:19:40;;;;;;;24.88;16.90;;;20.30;99.90;;;;;;5060318;28;20076;-58
2023/08/12 09:22:08;;;;;;;21.77;15.35;;;20.40;99.90;;;;;;5075842;28;20359;-58
2023/08/12 09:24:34;;;;;;;22.80;15.63;;;20.20;99.90;;;;;;5077956;28;20044;-58
2023/08/12 09:27:00;;;;;;;23.40;15.98;;;20.30;99.90;;;;;;5076518;28;20176;-58
2023/08/12 09:29:33;;;;;;;23.77;16.33;;;20.40;99.90;;;;;;5077176;28;20041;-58
2023/08/12 09:32:12;;;;;;;28.92;17.00;;;20.50;99.90;;;;;;5077725;28;20055;-58
2023/08/12 09:34:53;;;;;;;24.50;16.70;;;20.50;99.90;;;;;;5075705;28;20540;-58
2023/08/12 09:37:20;;;;;;;25.60;16.27;;;20.10;99.90;;;;;;5077850;28;20041;-58
2023/08/12 09:39:47;;;;;;;25.83;15.90;;;20.10;99.90;;;;;;5076009;28;20040;-58
2023/08/12 09:42:14;;;;;;;26.10;17.10;;;20.40;99.90;;;;;;5077373;28;20059;-58
2023/08/12 09:44:40;;;;;;;30.13;18.27;;;20.00;99.90;;;;;;5077979;28;20051;-59
2023/08/12 09:47:08;;;;;;;25.42;17.77;;;20.10;99.90;;;;;;5079482;28;20074;-60
2023/08/12 09:49:35;;;;;;;29.02;17.40;;;20.00;99.90;;;;;;5081329;28;20109;-60
2023/08/12 09:52:02;;;;;;;26.70;19.02;;;20.30;99.90;;;;;;5078676;28;20029;-60
2023/08/12 09:54:31;;;;;;;25.50;18.35;;;20.30;99.90;;;;;;5080662;28;20050;-60
2023/08/12 09:57:00;;;;;;;25.42;18.30;;;20.40;99.90;;;;;;5093025;28;20050;-60
2023/08/12 09:59:34;;;;;;;26.73;18.63;;;20.40;99.90;;;;;;5100584;28;20050;-61
2023/08/12 10:02:04;;;;;;;28.45;18.70;;;20.00;99.90;;;;;;5101097;28;20100;-60
2023/08/12 10:04:41;;;;;;;28.88;19.00;;;20.10;99.90;;;;;;5099401;28;20091;-61
2023/08/12 10:07:09;;;;;;;27.73;20.30;;;20.10;99.90;;;;;;5101141;28;20048;-60
2023/08/12 10:09:37;;;;;;;31.35;19.52;;;20.50;99.90;;;;;;5099435;28;20529;-61
2023/08/12 10:12:03;;;;;;;27.95;18.98;;;20.40;99.90;;;;;;5100841;28;20157;-62
2023/08/12 10:14:30;;;;;;;29.92;20.58;;;20.30;99.90;;;;;;5099856;28;20063;-62
2023/08/12 10:16:56;;;;;;;24.52;18.33;;;20.60;99.90;;;;;;5099769;28;20336;-62
2023/08/12 10:19:25;;;;;;;25.80;17.77;;;20.20;99.90;;;;;;5101057;28;20433;-61
2023/08/12 10:21:54;;;;;;;26.88;18.85;;;20.30;99.90;;;;;;5098736;28;20096;-60
2023/08/12 10:24:21;;;;;;;25.67;18.60;;;20.30;99.90;;;;;;5101076;28;20036;-61
2023/08/12 10:26:47;;;;;;;26.45;18.48;;;20.60;99.90;;;;;;5098731;28;20521;-60
2023/08/12 10:29:13;;;;;;;23.48;16.42;;;20.50;99.90;;;;;;5100660;28;20475;-62
2023/08/12 10:31:40;;;;;;;27.90;17.73;;;20.40;99.90;;;;;;5099969;28;20050;-61
2023/08/12 10:34:05;;;;;;;26.10;17.92;;;20.20;99.90;;;;;;5080705;28;20058;-62
2023/08/12 10:36:32;;;;;;;24.23;17.67;;;20.60;99.90;;;;;;5101015;28;20114;-65
2023/08/12 10:38:58;;;;;;;23.65;17.23;;;20.50;99.90;;;;;;5098595;28;20481;-63
2023/08/12 10:41:25;;;;;;;22.65;15.73;;;20.30;99.90;;;;;;5100748;28;20598;-61
2023/08/12 10:43:55;;;;;;;23.45;17.08;;;20.40;99.90;;;;;;5098506;28;20052;-60
2023/08/12 10:46:33;;;;;;;23.95;17.20;;;20.90;99.90;;;;;;5100400;28;20060;-59
2023/08/12 10:49:09;;;;;;;23.73;16.70;;;20.90;99.90;;;;;;5099563;28;20083;-59
2023/08/12 10:51:48;;;;;;;23.80;17.27;;;20.70;99.90;;;;;;5098694;28;20056;-59
2023/08/12 10:54:29;;;;;;;21.17;16.50;;;20.90;99.90;;;;;;5100495;28;20036;-59
2023/08/12 10:57:14;;;;;;;21.20;16.08;;;20.90;99.90;;;;;;5084173;28;20049;-58
2023/08/12 10:59:46;;;;;;;18.85;14.13;;;21.00;99.90;;;;;;5079200;28;20071;-58
2023/08/12 11:02:21;;;;;;;16.65;11.55;;;20.90;99.90;;;;;;5079905;28;20056;-57
2023/08/12 11:04:54;;;;;;;15.98;10.00;;;20.90;99.90;;;;;;5077535;28;20053;-57
2023/08/12 11:07:21;;;;;;;15.20;10.70;;;20.70;99.90;;;;;;5079689;28;20106;-59
2023/08/12 11:09:52;;;;;;;13.10;9.93;;;21.10;99.90;;;;;;5078084;28;20051;-57
2023/08/12 11:12:27;;;;;;;15.00;8.85;;;20.80;99.90;;;;;;5061304;28;20484;-58
2023/08/12 11:14:59;;;;;;;11.63;8.32;;;20.90;99.90;;;;;;5079558;28;20052;-57
2023/08/12 11:17:36;;;;;;;11.27;7.28;;;20.70;99.90;;;;;;5077773;28;20146;-57
2023/08/12 11:20:06;;;;;;;10.95;7.53;;;20.50;99.90;;;;;;5079236;28;20086;-58
2023/08/12 11:22:36;;;;;;;10.52;6.43;;;20.70;99.90;;;;;;5059754;28;20053;-57
2023/08/12 11:25:04;;;;;;;9.18;6.30;;;20.70;99.90;;;;;;5079276;28;20078;-58
2023/08/12 11:27:39;;;;;;;10.73;6.45;;;20.90;99.90;;;;;;5078830;28;20067;-57
2023/08/12 11:30:06;;;;;;;12.05;6.45;;;21.00;99.90;;;;;;5077648;28;20797;-57
2023/08/12 11:32:32;;;;;;;8.10;4.43;;;20.90;99.90;;;;;;5079319;28;20049;-58
2023/08/12 11:34:58;;;;;;;9.52;3.80;;;20.10;99.90;;;;;;5077219;28;20048;-57
2023/08/12 11:37:24;;;;;;;8.10;3.50;;;19.30;99.90;;;;;;5079068;28;20029;-57
2023/08/12 11:39:52;;;;;;;9.05;3.63;;;18.70;99.90;;;;;;5077442;28;20063;-57
2023/08/12 11:42:18;;;;;;;8.88;3.40;;;19.00;99.90;;;;;;5078624;28;20329;-57
2023/08/12 11:44:43;;;;;;;7.97;3.15;;;18.70;99.90;;;;;;5060688;28;20096;-58
2023/08/12 11:47:09;;;;;;;9.13;3.40;;;18.40;99.90;;;;;;5077202;28;20048;-58
2023/08/12 11:49:35;;;;;;;8.93;3.38;;;18.60;99.90;;;;;;5078624;28;20059;-58
2023/08/12 11:52:01;;;;;;;9.77;3.90;;;18.20;99.90;;;;;;5076934;28;20117;-58
2023/08/12 11:54:27;;;;;;;10.50;3.65;;;18.20;99.90;;;;;;5078594;28;20040;-59
2023/08/12 11:56:53;;;;;;;9.02;3.90;;;18.20;99.90;;;;;;5090679;28;20055;-59
2023/08/12 11:59:21;;;;;;;7.68;3.10;;;18.30;99.90;;;;;;5098466;28;20074;-58
2023/08/12 12:01:48;;;;;;;11.10;3.00;;;18.00;99.90;;;;;;5098675;28;20392;-58
2023/08/12 12:04:15;;;;;;;7.38;2.50;;;18.20;99.90;;;;;;5097315;28;20058;-60
2023/08/12 12:06:41;;;;;;;7.68;2.95;;;18.00;99.90;;;;;;5081349;28;20052;-61
2023/08/12 12:09:12;;;;;;;10.20;3.30;;;18.00;99.90;;;;;;5096026;28;20094;-59
2023/08/12 12:11:38;;;;;;;7.45;2.63;;;18.20;99.90;;;;;;5098892;28;20040;-59
2023/08/12 12:14:05;;;;;;;10.85;3.20;;;18.00;99.90;;;;;;5097421;28;20056;-59
2023/08/12 12:16:45;;;;;;;10.70;3.78;;;17.80;99.90;;;;;;5098244;28;20166;-58
2023/08/12 12:19:18;;;;;;;7.40;2.80;;;17.90;99.90;;;;;;5080136;28;20059;-58
2023/08/12 12:21:50;;;;;;;9.13;2.50;;;17.90;99.90;;;;;;5097090;28;20114;-59
2023/08/12 12:24:17;;;;;;;7.28;1.90;;;17.90;99.90;;;;;;5080259;28;20056;-58
2023/08/12 12:26:44;;;;;;;10.07;2.53;;;18.00;99.90;;;;;;5096915;28;20056;-57
2023/08/12 12:29:13;;;;;;;8.30;2.10;;;18.10;99.90;;;;;;5098117;28;20416;-58
2023/08/12 12:31:41;;;;;;;7.50;2.13;;;18.20;99.90;;;;;;5098355;28;20096;-57
2023/08/12 12:34:07;;;;;;;7.28;2.03;;;18.20;99.90;;;;;;5096987;28;20074;-60